Time;durP1;ratioP1;P1;durP2;ratioP2;P2;SDS_P1;SDS_P2;PMS_P1;PMS_P2;Temp;Humidity;BMP_temperature;BMP_pressure;BME280_temperature;BME280_humidity;BME280_pressure;Samples;Min_cycle;Max_cycle;Signal;HPM_P1;HPM_P2
2023/06/25 00:00:44;;;;;;;2.90;2.60;;;;;;;30.90;36.69;101942.09;5050071;27;96733;-79
2023/06/25 00:03:12;;;;;;;2.45;2.25;;;;;;;30.90;37.07;101933.78;5052501;27;96882;-79
2023/06/25 00:05:39;;;;;;;2.13;1.92;;;;;;;30.91;36.76;101931.88;5045520;27;97526;-79
2023/06/25 00:08:05;;;;;;;2.35;2.15;;;;;;;30.90;36.81;101928.25;5040505;27;96751;-79
2023/06/25 00:10:32;;;;;;;3.15;2.38;;;;;;;30.90;36.76;101922.69;5036921;27;96716;-79
2023/06/25 00:12:59;;;;;;;2.67;2.42;;;;;;;30.90;36.82;101924.63;5051339;27;96862;-79
2023/06/25 00:15:27;;;;;;;2.50;2.30;;;;;;;30.90;36.85;101925.47;5051430;27;97980;-79
2023/06/25 00:17:54;;;;;;;2.25;2.05;;;;;;;30.91;36.84;101926.31;5051618;27;99886;-79
2023/06/25 00:20:24;;;;;;;3.00;2.30;;;;;;;30.90;36.81;101919.91;5019897;28;98186;-79
2023/06/25 00:22:51;;;;;;;2.30;2.10;;;;;;;30.89;36.96;101923.75;5030715;27;97000;-79
2023/06/25 00:25:33;;;;;;;2.25;2.05;;;;;;;30.88;37.13;101915.66;5042439;27;96662;-79
2023/06/25 00:28:00;;;;;;;2.40;2.20;;;;;;;30.89;36.84;101918.22;5034884;27;96742;-79
2023/06/25 00:30:27;;;;;;;2.95;2.40;;;;;;;30.90;37.05;101919.06;5029359;27;97285;-79
2023/06/25 00:32:54;;;;;;;3.65;2.30;;;;;;;30.90;36.87;101921.84;5025505;27;97175;-79
2023/06/25 00:35:26;;;;;;;1.80;1.67;;;;;;;30.89;37.26;101921.00;5050048;27;100935;-79
2023/06/25 00:37:57;;;;;;;2.50;2.30;;;;;;;30.89;36.92;101918.22;5051920;27;96813;-79
2023/06/25 00:40:25;;;;;;;2.55;2.35;;;;;;;30.90;37.13;101916.28;5039839;27;96689;-80
2023/06/25 00:42:58;;;;;;;2.60;2.40;;;;;;;30.89;37.09;101923.75;5052742;27;96824;-79
2023/06/25 00:45:25;;;;;;;2.50;2.30;;;;;;;30.87;37.00;101912.03;5036121;27;99274;-79
2023/06/25 00:47:53;;;;;;;2.40;2.20;;;;;;;30.89;37.19;101912.66;5045600;27;100376;-79
2023/06/25 00:50:21;;;;;;;2.65;2.05;;;;;;;30.88;37.16;101910.09;5053893;27;96767;-79
2023/06/25 00:52:51;;;;;;;2.38;2.17;;;;;;;30.87;37.17;101906.47;5036651;27;97568;-79
2023/06/25 00:55:19;;;;;;;2.38;2.17;;;;;;;30.88;37.00;101904.56;5051044;27;100782;-79
2023/06/25 00:57:46;;;;;;;2.45;2.22;;;;;;;30.88;37.30;101901.78;5053586;27;99826;-79
2023/06/25 01:00:14;;;;;;;2.30;2.08;;;;;;;30.88;37.15;101899.88;5051488;27;96663;-79
2023/06/25 01:02:49;;;;;;;2.53;2.25;;;;;;;30.89;36.77;101900.72;5048426;27;97192;-79
2023/06/25 01:05:29;;;;;;;2.50;2.30;;;;;;;30.89;36.98;101896.03;5034745;27;98285;-79
2023/06/25 01:07:58;;;;;;;2.65;2.28;;;;;;;30.87;36.97;101897.31;5036529;27;99566;-79
2023/06/25 01:10:25;;;;;;;2.35;2.15;;;;;;;30.87;36.83;101894.53;5051779;27;96871;-79
2023/06/25 01:12:52;;;;;;;2.55;2.20;;;;;;;30.86;37.41;101888.13;5053719;27;96931;-80
2023/06/25 01:15:18;;;;;;;2.67;2.47;;;;;;;30.86;37.16;101890.06;5030925;28;99356;-79
2023/06/25 01:17:48;;;;;;;2.33;1.95;;;;;;;30.86;37.08;101882.59;5051491;27;99907;-79
2023/06/25 01:20:16;;;;;;;2.65;2.45;;;;;;;30.86;36.98;101884.50;5053318;27;96822;-79
2023/06/25 01:22:43;;;;;;;2.28;2.08;;;;;;;30.86;36.97;101884.50;5054543;27;96669;-79
2023/06/25 01:25:10;;;;;;;2.30;2.10;;;;;;;30.87;37.27;101883.44;5052015;27;97374;-79
2023/06/25 01:27:37;;;;;;;2.53;2.33;;;;;;;30.86;37.06;101878.97;5053295;27;98427;-79
2023/06/25 01:30:06;;;;;;;2.47;2.28;;;;;;;30.86;37.23;101881.75;5050216;27;97063;-81
2023/06/25 01:32:32;;;;;;;3.15;2.20;;;;;;;30.86;37.06;101865.94;5047773;27;96749;-80
2023/06/25 01:34:59;;;;;;;2.38;2.17;;;;;;;30.86;36.94;101868.72;5032488;27;97582;-79
2023/06/25 01:37:28;;;;;;;2.60;2.40;;;;;;;30.86;37.09;101867.88;5044564;27;97293;-79
2023/06/25 01:39:55;;;;;;;2.17;1.98;;;;;;;30.86;36.96;101868.72;5046046;27;96811;-79
2023/06/25 01:42:22;;;;;;;2.85;2.65;;;;;;;30.85;37.27;101864.25;5054137;27;96701;-79
2023/06/25 01:44:48;;;;;;;2.20;2.00;;;;;;;30.86;37.05;101865.94;5028788;27;100503;-79
2023/06/25 01:47:15;;;;;;;2.28;2.08;;;;;;;30.85;37.16;101858.69;5049797;27;99136;-79
2023/06/25 01:49:42;;;;;;;2.80;2.22;;;;;;;30.85;37.17;101853.16;5033081;27;96846;-79
2023/06/25 01:52:08;;;;;;;2.30;2.10;;;;;;;30.85;37.14;101850.38;5032658;27;97957;-79
2023/06/25 01:54:35;;;;;;;2.47;2.28;;;;;;;30.85;37.39;101849.53;5031674;27;98959;-79
2023/06/25 01:57:02;;;;;;;2.80;2.60;;;;;;;30.85;37.20;101844.81;5026479;27;100568;-79
2023/06/25 01:59:28;;;;;;;2.55;2.30;;;;;;;30.84;37.22;101845.91;5051673;27;96823;-79
2023/06/25 02:01:55;;;;;;;2.53;2.30;;;;;;;30.85;37.25;101846.75;5051721;27;97062;-79
2023/06/25 02:04:23;;;;;;;2.60;2.40;;;;;;;30.85;36.93;101849.53;5053142;27;97337;-79
2023/06/25 02:06:49;;;;;;;2.90;2.60;;;;;;;30.85;37.01;101841.19;5052819;27;97823;-79
2023/06/25 02:09:16;;;;;;;2.35;2.15;;;;;;;30.84;37.50;101848.66;5052272;27;96842;-80
2023/06/25 02:11:42;;;;;;;2.47;2.28;;;;;;;30.84;37.04;101834.81;5035044;27;96917;-79
2023/06/25 02:14:09;;;;;;;2.38;2.17;;;;;;;30.84;37.03;101832.03;5051795;27;100090;-79
2023/06/25 02:16:36;;;;;;;2.00;1.80;;;;;;;30.84;37.55;101833.94;5052835;27;96674;-79
2023/06/25 02:19:03;;;;;;;2.10;1.90;;;;;;;30.84;37.43;101820.94;5036453;27;96757;-79
2023/06/25 02:21:29;;;;;;;2.20;2.00;;;;;;;30.83;37.40;101824.78;5033185;27;97301;-79
2023/06/25 02:23:56;;;;;;;2.13;1.92;;;;;;;30.84;37.11;101820.94;5045902;27;96783;-80
2023/06/25 02:26:23;;;;;;;2.17;1.95;;;;;;;30.83;37.34;101821.16;5042242;27;99291;-79
2023/06/25 02:28:49;;;;;;;2.65;2.40;;;;;;;30.82;37.07;101817.53;5021923;27;96875;-79
2023/06/25 02:31:18;;;;;;;2.33;1.98;;;;;;;30.84;37.00;101809.00;5052831;27;97167;-79
2023/06/25 02:33:45;;;;;;;2.33;2.13;;;;;;;30.83;37.51;101808.13;5032414;27;99599;-79
2023/06/25 02:36:11;;;;;;;2.28;2.08;;;;;;;30.82;37.22;101803.66;5051816;27;97213;-79
2023/06/25 02:38:38;;;;;;;2.30;2.10;;;;;;;30.83;37.17;101805.38;5033491;27;96891;-79
2023/06/25 02:41:04;;;;;;;2.20;2.00;;;;;;;30.82;36.92;101803.66;5045187;27;97134;-79
2023/06/25 02:43:31;;;;;;;2.35;2.15;;;;;;;30.83;37.07;101804.50;5042823;27;96986;-79
2023/06/25 02:45:58;;;;;;;2.45;2.25;;;;;;;30.83;37.33;101801.72;5039955;27;99475;-79
2023/06/25 02:48:25;;;;;;;2.50;2.30;;;;;;;30.83;37.22;101801.72;5053820;27;96669;-79
2023/06/25 02:50:51;;;;;;;2.58;2.38;;;;;;;30.83;37.10;101796.19;5035678;27;97185;-79
2023/06/25 02:53:18;;;;;;;2.10;1.85;;;;;;;30.82;37.17;101798.13;5051166;27;100616;-79
2023/06/25 02:55:45;;;;;;;2.85;2.30;;;;;;;30.82;36.92;101800.88;5050733;27;97933;-79
2023/06/25 02:58:11;;;;;;;2.92;2.50;;;;;;;30.82;37.02;101798.13;5053746;27;97475;-79
2023/06/25 03:00:38;;;;;;;2.42;2.15;;;;;;;30.82;37.33;101800.88;5034060;27;96877;-79
2023/06/25 03:03:05;;;;;;;2.38;2.17;;;;;;;30.82;37.18;101802.81;5032510;27;99308;-79
2023/06/25 03:05:32;;;;;;;2.00;1.88;;;;;;;30.81;37.24;101804.72;5049405;27;99174;-79
2023/06/25 03:08:00;;;;;;;2.63;2.33;;;;;;;30.81;37.27;101799.19;5051024;27;97342;-79
2023/06/25 03:10:31;;;;;;;2.10;1.90;;;;;;;30.81;37.23;101798.34;5032874;27;97251;-80
2023/06/25 03:12:58;;;;;;;2.35;2.15;;;;;;;30.82;37.07;101800.88;5050762;27;98133;-79
2023/06/25 03:15:25;;;;;;;2.38;2.08;;;;;;;30.80;37.42;101791.94;5048104;27;98823;-79
2023/06/25 03:17:53;;;;;;;2.33;2.13;;;;;;;30.80;37.23;101797.47;5050798;27;96751;-79
2023/06/25 03:20:19;;;;;;;2.38;2.17;;;;;;;30.80;37.53;101791.94;5033047;27;96660;-79
2023/06/25 03:22:46;;;;;;;1.92;1.73;;;;;;;30.80;37.05;101793.84;5051389;27;98058;-79
2023/06/25 03:25:13;;;;;;;2.30;2.10;;;;;;;30.79;36.89;101801.31;5050316;27;100151;-79
2023/06/25 03:27:45;;;;;;;2.47;2.25;;;;;;;30.79;37.35;101790.22;5039009;27;96681;-80
2023/06/25 03:30:11;;;;;;;2.22;2.00;;;;;;;30.79;36.82;101789.38;5019829;27;96865;-79
2023/06/25 03:32:38;;;;;;;2.72;2.30;;;;;;;30.79;37.12;101795.78;5032453;27;96821;-79
2023/06/25 03:35:05;;;;;;;2.33;2.03;;;;;;;30.79;37.07;101790.22;5059836;27;99411;-79
2023/06/25 03:37:33;;;;;;;1.80;1.70;;;;;;;30.79;37.30;101781.06;5041136;27;96766;-79
2023/06/25 03:39:59;;;;;;;2.33;2.13;;;;;;;30.79;37.27;101787.47;5051452;27;96642;-79
2023/06/25 03:42:26;;;;;;;2.20;2.00;;;;;;;30.79;37.13;101781.06;5050668;27;99851;-79
2023/06/25 03:44:54;;;;;;;3.33;2.00;;;;;;;30.79;37.05;101784.69;5026998;28;99535;-79
2023/06/25 03:47:25;;;;;;;2.85;2.45;;;;;;;30.79;36.99;101783.84;5031959;27;97174;-79
2023/06/25 03:49:52;;;;;;;2.10;1.90;;;;;;;30.79;37.01;101784.69;5014006;28;96711;-80
2023/06/25 03:52:19;;;;;;;2.30;2.10;;;;;;;30.78;37.03;101782.13;5045558;27;97613;-79
2023/06/25 03:54:46;;;;;;;2.03;1.83;;;;;;;30.78;37.33;101774.66;5032999;27;99136;-79
2023/06/25 03:57:12;;;;;;;3.05;2.08;;;;;;;30.78;37.26;101773.81;5029992;27;96681;-79
2023/06/25 03:59:39;;;;;;;2.60;2.40;;;;;;;30.78;37.13;101780.22;5031396;27;97066;-79
2023/06/25 04:02:08;;;;;;;2.30;2.10;;;;;;;30.79;37.16;101781.06;5045588;27;96837;-79
2023/06/25 04:04:34;;;;;;;2.20;2.00;;;;;;;30.78;37.37;101771.88;5050437;27;97370;-79
2023/06/25 04:07:02;;;;;;;2.38;2.17;;;;;;;30.78;37.16;101769.13;5031726;27;97018;-79
2023/06/25 04:09:29;;;;;;;2.20;2.00;;;;;;;30.78;37.28;101777.44;5049352;27;96954;-79
2023/06/25 04:11:56;;;;;;;2.47;2.20;;;;;;;30.77;37.36;101777.66;5048741;27;97570;-79
2023/06/25 04:14:22;;;;;;;2.45;2.25;;;;;;;30.77;37.25;101777.66;5031852;27;100458;-79
2023/06/25 04:16:49;;;;;;;2.17;1.98;;;;;;;30.77;37.09;101780.44;5047715;27;96875;-79
2023/06/25 04:19:16;;;;;;;2.20;2.00;;;;;;;30.76;37.24;101774.03;5033244;27;96970;-79
2023/06/25 04:21:42;;;;;;;2.03;1.83;;;;;;;30.77;37.15;101774.88;5051270;27;97261;-79
2023/06/25 04:24:09;;;;;;;1.88;1.77;;;;;;;30.77;37.09;101774.88;5031038;27;96692;-79
2023/06/25 04:26:36;;;;;;;2.08;1.95;;;;;;;30.77;37.06;101775.72;5029345;27;96749;-79
2023/06/25 04:29:02;;;;;;;2.78;2.55;;;;;;;30.77;37.21;101780.44;5047567;27;96866;-79
2023/06/25 04:31:30;;;;;;;2.20;2.00;;;;;;;30.76;37.30;101771.25;5032021;27;99193;-79
2023/06/25 04:33:57;;;;;;;2.40;2.20;;;;;;;30.76;36.92;101767.63;5045389;27;99923;-79
2023/06/25 04:36:23;;;;;;;2.30;2.10;;;;;;;30.77;37.15;101769.34;5044675;27;97022;-79
2023/06/25 04:38:55;;;;;;;2.78;2.05;;;;;;;30.77;37.35;101772.09;5029525;27;96820;-79
2023/06/25 04:41:26;;;;;;;2.40;2.20;;;;;;;30.76;37.24;101774.03;5028629;27;99482;-79
2023/06/25 04:43:53;;;;;;;2.20;2.00;;;;;;;30.76;37.29;101774.03;5012205;28;98705;-79
2023/06/25 04:46:20;;;;;;;2.30;2.10;;;;;;;30.76;37.23;101773.19;5031114;27;96820;-79
2023/06/25 04:48:47;;;;;;;2.40;2.10;;;;;;;30.76;37.36;101771.25;5013460;27;97077;-79
2023/06/25 04:51:14;;;;;;;2.22;2.03;;;;;;;30.75;37.06;101769.56;5047665;27;97963;-79
2023/06/25 04:53:40;;;;;;;2.50;2.10;;;;;;;30.76;37.37;101770.41;5019219;27;98294;-79
2023/06/25 04:56:07;;;;;;;2.33;2.10;;;;;;;30.75;37.49;101777.03;5012766;27;97080;-79
2023/06/25 04:58:35;;;;;;;2.28;2.08;;;;;;;30.75;37.14;101777.88;5029692;27;97120;-79
2023/06/25 05:01:02;;;;;;;2.10;1.90;;;;;;;30.75;37.49;101772.34;5045419;27;98543;-79
2023/06/25 05:03:29;;;;;;;2.30;2.10;;;;;;;30.75;37.12;101777.88;5043583;27;96673;-79
2023/06/25 05:05:57;;;;;;;2.97;2.05;;;;;;;30.75;37.19;101780.66;5024654;27;96910;-79
2023/06/25 05:08:24;;;;;;;2.13;1.92;;;;;;;30.75;37.29;101774.25;5031436;27;96794;-79
2023/06/25 05:10:51;;;;;;;2.13;1.92;;;;;;;30.76;37.21;101775.94;5031424;27;96736;-79
2023/06/25 05:13:18;;;;;;;2.85;2.00;;;;;;;30.75;37.10;101772.34;5032266;27;96820;-79
2023/06/25 05:15:44;;;;;;;2.45;2.20;;;;;;;30.75;37.24;101775.09;5031544;27;96804;-79
2023/06/25 05:18:11;;;;;;;2.30;2.08;;;;;;;30.75;37.15;101775.09;5032155;27;96638;-79
2023/06/25 05:20:38;;;;;;;2.10;1.90;;;;;;;30.75;37.34;101772.34;5050206;27;96836;-79
2023/06/25 05:23:06;;;;;;;2.22;2.00;;;;;;;30.76;37.03;101770.41;5050674;27;97867;-79
2023/06/25 05:25:34;;;;;;;2.25;2.05;;;;;;;30.75;37.26;101777.88;5048728;27;96827;-79
2023/06/25 05:28:03;;;;;;;2.08;1.88;;;;;;;30.75;37.19;101771.47;5052628;27;96839;-79
2023/06/25 05:30:33;;;;;;;2.10;1.90;;;;;;;30.75;37.37;101768.72;5031183;27;100042;-79
2023/06/25 05:33:01;;;;;;;1.88;1.65;;;;;;;30.74;37.29;101775.31;5043584;27;99025;-79
2023/06/25 05:35:28;;;;;;;2.30;2.10;;;;;;;30.74;37.36;101762.31;5032088;27;97378;-79
2023/06/25 05:37:58;;;;;;;2.20;1.90;;;;;;;30.73;37.32;101768.91;5037014;27;96771;-79
2023/06/25 05:40:28;;;;;;;2.40;2.13;;;;;;;30.75;37.27;101763.16;5041350;27;97601;-79
2023/06/25 05:42:55;;;;;;;2.42;2.17;;;;;;;30.74;37.40;101767.84;5031971;27;97824;-79
2023/06/25 05:45:22;;;;;;;2.15;1.90;;;;;;;30.74;37.13;101765.09;5033644;27;97008;-79
2023/06/25 05:47:48;;;;;;;2.28;2.08;;;;;;;30.74;37.25;101770.63;5051941;27;96659;-79
2023/06/25 05:50:15;;;;;;;2.22;2.03;;;;;;;30.74;37.36;101765.09;5052069;27;100929;-79
2023/06/25 05:52:43;;;;;;;2.08;1.90;;;;;;;30.75;37.10;101771.47;5053632;27;96838;-79
2023/06/25 05:55:11;;;;;;;2.35;2.00;;;;;;;30.74;37.20;101767.84;5052447;27;96785;-79
2023/06/25 05:57:39;;;;;;;2.28;2.08;;;;;;;30.74;37.05;101756.75;5028372;28;97908;-79
2023/06/25 06:00:06;;;;;;;1.90;1.80;;;;;;;30.74;36.97;101762.31;5034058;27;96608;-79
2023/06/25 06:02:38;;;;;;;2.22;1.98;;;;;;;30.73;37.22;101746.75;5045399;27;96560;-79
2023/06/25 06:05:06;;;;;;;1.90;1.67;;;;;;;30.74;37.10;101748.44;5043419;27;96677;-79
2023/06/25 06:07:32;;;;;;;2.53;1.95;;;;;;;30.74;37.32;101747.59;5033408;27;97290;-79
2023/06/25 06:09:59;;;;;;;3.10;2.10;;;;;;;30.74;37.01;101756.75;5021410;27;99906;-79
2023/06/25 06:12:26;;;;;;;2.58;2.00;;;;;;;30.75;36.97;101755.69;5051683;27;97662;-79
2023/06/25 06:14:53;;;;;;;2.00;1.90;;;;;;;30.75;37.33;101752.06;5044124;27;97252;-80
2023/06/25 06:17:20;;;;;;;1.90;1.75;;;;;;;30.75;37.03;101749.28;5049377;27;97030;-79
2023/06/25 06:19:46;;;;;;;2.53;1.98;;;;;;;30.74;37.38;101753.13;5048011;27;98109;-80
2023/06/25 06:22:14;;;;;;;2.97;2.00;;;;;;;30.74;37.07;101754.00;5051991;27;97523;-79
2023/06/25 06:24:41;;;;;;;2.28;2.08;;;;;;;30.74;37.14;101744.81;5051085;27;96740;-79
2023/06/25 06:27:08;;;;;;;2.13;1.92;;;;;;;30.75;37.12;101750.16;5053108;27;96570;-80
2023/06/25 06:29:34;;;;;;;2.35;2.00;;;;;;;30.74;37.01;101748.44;5051821;27;97098;-79
2023/06/25 06:32:01;;;;;;;2.75;2.00;;;;;;;30.74;36.97;101751.22;5044924;27;98717;-79
2023/06/25 06:34:27;;;;;;;2.17;1.98;;;;;;;30.75;37.29;101749.28;5044927;27;97582;-79
2023/06/25 06:36:54;;;;;;;2.47;2.28;;;;;;;30.75;37.29;101747.38;5028618;27;97748;-79
2023/06/25 06:39:21;;;;;;;2.10;1.90;;;;;;;30.75;37.25;101749.28;5048127;27;97332;-79
2023/06/25 06:41:47;;;;;;;2.72;2.10;;;;;;;30.75;36.93;101750.16;5047081;27;99230;-79
2023/06/25 06:44:16;;;;;;;2.40;2.13;;;;;;;30.75;37.12;101744.59;5030663;27;98327;-79
2023/06/25 06:46:43;;;;;;;2.13;1.92;;;;;;;30.75;37.26;101743.75;5052989;27;96892;-80
2023/06/25 06:49:10;;;;;;;2.90;2.30;;;;;;;30.75;37.21;101741.81;5049169;27;97247;-79
2023/06/25 06:51:38;;;;;;;2.22;2.03;;;;;;;30.75;37.31;101736.28;5043604;27;98715;-79
2023/06/25 06:54:05;;;;;;;2.70;2.50;;;;;;;30.74;37.02;101742.91;5041256;27;96767;-79
2023/06/25 06:56:33;;;;;;;2.60;2.40;;;;;;;30.76;37.08;101737.13;5048046;27;97147;-79
2023/06/25 06:59:03;;;;;;;2.30;2.10;;;;;;;30.75;37.21;101740.97;5053428;27;97579;-79
2023/06/25 07:01:29;;;;;;;3.05;2.40;;;;;;;30.74;37.23;101737.34;5043107;27;96681;-79
2023/06/25 07:03:56;;;;;;;2.72;2.40;;;;;;;30.76;37.31;101742.69;5052027;27;97072;-80
2023/06/25 07:06:23;;;;;;;2.60;2.40;;;;;;;30.75;36.91;101733.50;5050711;27;96805;-79
2023/06/25 07:08:50;;;;;;;2.40;2.20;;;;;;;30.75;37.23;101732.66;5047435;27;97501;-79
2023/06/25 07:11:18;;;;;;;4.00;3.00;;;;;;;30.75;37.30;101732.66;5045399;27;97276;-79
2023/06/25 07:13:45;;;;;;;2.90;2.60;;;;;;;30.75;37.12;101733.50;5045654;27;96815;-79
2023/06/25 07:16:12;;;;;;;3.55;2.70;;;;;;;30.76;36.89;101735.19;5046827;27;97076;-79
2023/06/25 07:18:39;;;;;;;3.10;2.38;;;;;;;30.76;37.01;101732.44;5031231;28;99994;-79
2023/06/25 07:21:06;;;;;;;2.97;2.67;;;;;;;30.76;37.10;101737.13;5037644;27;99878;-79
2023/06/25 07:23:35;;;;;;;2.90;2.60;;;;;;;30.76;37.10;101737.13;5040022;27;97293;-79
2023/06/25 07:26:02;;;;;;;2.97;2.50;;;;;;;30.76;37.23;101740.75;5034416;27;97129;-79
2023/06/25 07:28:29;;;;;;;2.85;2.45;;;;;;;30.77;37.14;101738.81;5033886;27;96754;-79
2023/06/25 07:30:56;;;;;;;2.42;2.22;;;;;;;30.76;37.04;101737.97;5048139;27;97173;-79
2023/06/25 07:33:22;;;;;;;3.20;2.70;;;;;;;30.76;37.18;101740.75;5043043;27;96850;-79
2023/06/25 07:35:49;;;;;;;4.40;2.42;;;;;;;30.76;37.17;101735.19;5034875;27;96886;-79
2023/06/25 07:38:15;;;;;;;3.00;2.58;;;;;;;30.77;37.13;101736.06;5039455;27;96684;-79
2023/06/25 07:40:42;;;;;;;3.00;2.70;;;;;;;30.77;37.08;101725.81;5052439;27;99662;-79
2023/06/25 07:43:09;;;;;;;3.45;2.22;;;;;;;30.77;36.95;101725.81;5053311;27;97111;-79
2023/06/25 07:45:35;;;;;;;2.97;2.67;;;;;;;30.78;36.91;101732.22;5032293;28;97176;-80
2023/06/25 07:48:03;;;;;;;3.00;2.65;;;;;;;30.76;37.02;101726.88;5051976;27;99402;-80
2023/06/25 07:50:29;;;;;;;3.10;2.75;;;;;;;30.77;37.03;101728.59;5051743;27;97427;-80
2023/06/25 07:52:56;;;;;;;4.13;2.70;;;;;;;30.77;37.06;101720.25;5053585;27;96820;-79
2023/06/25 07:55:24;;;;;;;3.00;2.70;;;;;;;30.78;37.31;101718.34;5052171;27;97359;-79
2023/06/25 07:57:51;;;;;;;4.13;2.83;;;;;;;30.77;36.98;101720.25;5031419;27;97312;-80
2023/06/25 08:00:17;;;;;;;4.00;2.80;;;;;;;30.78;37.16;101721.13;5032207;27;97147;-80
2023/06/25 08:02:47;;;;;;;3.38;2.70;;;;;;;30.78;36.97;101715.56;5032276;27;96676;-80
2023/06/25 08:05:14;;;;;;;3.20;2.47;;;;;;;30.79;36.85;101720.03;5034305;27;96774;-80
2023/06/25 08:07:41;;;;;;;4.10;2.72;;;;;;;30.78;37.05;101713.66;5043886;27;97696;-80
2023/06/25 08:10:08;;;;;;;3.78;2.60;;;;;;;30.78;36.77;101710.88;5033312;27;96821;-80
2023/06/25 08:12:34;;;;;;;2.75;2.50;;;;;;;30.78;36.96;101710.88;5033629;27;96634;-80
2023/06/25 08:15:01;;;;;;;3.63;2.80;;;;;;;30.78;36.96;101710.03;5033521;27;96937;-79
2023/06/25 08:17:28;;;;;;;3.03;2.75;;;;;;;30.78;36.85;101713.66;5046360;27;97507;-79
2023/06/25 08:19:55;;;;;;;2.72;2.53;;;;;;;30.78;36.88;101713.66;5020664;27;97700;-80
2023/06/25 08:22:21;;;;;;;3.08;2.78;;;;;;;30.79;36.85;101712.56;5046782;27;97049;-79
2023/06/25 08:24:48;;;;;;;3.30;3.00;;;;;;;30.79;37.00;101708.94;5043860;27;97011;-79
2023/06/25 08:27:14;;;;;;;3.08;2.78;;;;;;;30.79;36.77;101706.19;5051916;27;96774;-80
2023/06/25 08:29:41;;;;;;;3.33;2.83;;;;;;;30.79;36.82;101707.03;5041227;27;96611;-79
2023/06/25 08:32:08;;;;;;;3.20;2.90;;;;;;;30.80;36.88;101707.88;5013638;28;96772;-79
2023/06/25 08:34:34;;;;;;;2.97;2.67;;;;;;;30.79;36.77;101703.41;5014603;27;97182;-79
2023/06/25 08:37:01;;;;;;;3.30;2.78;;;;;;;30.79;36.77;101707.03;5048575;27;97005;-80
2023/06/25 08:39:27;;;;;;;3.33;3.03;;;;;;;30.80;36.94;101694.84;5050555;27;96664;-80
2023/06/25 08:41:54;;;;;;;2.95;2.65;;;;;;;30.80;36.66;101699.56;5041988;27;96606;-79
2023/06/25 08:44:21;;;;;;;3.38;2.60;;;;;;;30.80;36.78;101696.78;5036603;27;97913;-80
2023/06/25 08:46:49;;;;;;;3.30;2.85;;;;;;;30.80;36.78;101694.84;5030768;27;97291;-80
2023/06/25 08:49:18;;;;;;;3.00;2.70;;;;;;;30.80;36.87;101697.63;5048662;27;97425;-80
2023/06/25 08:51:44;;;;;;;4.15;2.72;;;;;;;30.80;37.15;101686.53;5051333;27;96821;-79
2023/06/25 08:54:11;;;;;;;2.95;2.65;;;;;;;30.81;36.71;101687.38;5050366;27;96809;-80
2023/06/25 08:56:39;;;;;;;3.85;2.58;;;;;;;30.81;37.01;101688.25;5033258;27;98900;-80
2023/06/25 08:59:05;;;;;;;3.60;2.40;;;;;;;30.81;36.67;101688.25;5049715;27;96879;-80
2023/06/25 09:01:32;;;;;;;3.05;2.75;;;;;;;30.81;37.00;101693.78;5051376;27;97057;-80
2023/06/25 09:03:58;;;;;;;2.90;2.60;;;;;;;30.82;36.77;101686.31;5051840;27;96746;-80
2023/06/25 09:06:26;;;;;;;3.13;2.70;;;;;;;30.82;37.01;101684.41;5052744;27;100590;-79
2023/06/25 09:08:53;;;;;;;2.80;2.58;;;;;;;30.82;36.95;101680.78;5033167;27;100149;-80
2023/06/25 09:11:19;;;;;;;2.95;2.65;;;;;;;30.81;37.10;101682.69;5049984;27;96598;-80
2023/06/25 09:13:46;;;;;;;3.33;2.83;;;;;;;30.82;36.67;101681.63;5066302;27;97434;-80
2023/06/25 09:16:12;;;;;;;3.20;2.65;;;;;;;30.82;37.01;101684.41;5048834;27;97721;-80
2023/06/25 09:18:39;;;;;;;3.03;2.75;;;;;;;30.82;36.87;101672.44;5055669;27;96927;-80
2023/06/25 09:21:08;;;;;;;4.40;3.00;;;;;;;30.83;36.86;101682.47;5041249;27;96613;-79
2023/06/25 09:23:38;;;;;;;3.08;2.78;;;;;;;30.82;36.84;101673.31;5046681;27;96841;-80
2023/06/25 09:26:07;;;;;;;3.22;2.90;;;;;;;30.83;36.95;101679.69;5033751;27;100767;-80
2023/06/25 09:28:49;;;;;;;3.17;2.88;;;;;;;30.83;36.88;101669.44;5046560;27;99909;-80
2023/06/25 09:31:16;;;;;;;3.55;2.60;;;;;;;30.82;36.90;101678.00;5042288;27;97355;-80
2023/06/25 09:33:50;;;;;;;2.92;2.50;;;;;;;30.83;36.76;101665.84;5052804;27;96802;-80
2023/06/25 09:36:17;;;;;;;2.83;2.45;;;;;;;30.82;36.81;101673.31;5040894;27;98494;-80
2023/06/25 09:39:08;;;;;;;3.28;2.95;;;;;;;30.83;36.95;101668.59;5048640;27;98353;-80
2023/06/25 09:41:37;;;;;;;3.35;3.05;;;;;;;30.83;36.78;101663.06;5042763;27;96643;-79
2023/06/25 09:44:05;;;;;;;3.28;2.97;;;;;;;30.83;36.89;101657.50;5040714;27;96938;-80
2023/06/25 09:46:34;;;;;;;4.15;2.60;;;;;;;30.83;37.03;101666.69;5033929;27;96859;-80
2023/06/25 09:49:02;;;;;;;3.10;2.80;;;;;;;30.83;36.81;101660.28;5051387;27;98394;-79
2023/06/25 09:51:49;;;;;;;2.92;2.63;;;;;;;30.85;36.91;101660.91;5034137;27;96781;-80
2023/06/25 09:54:21;;;;;;;3.35;3.05;;;;;;;30.83;36.99;101658.34;5047755;27;97453;-79
2023/06/25 09:56:49;;;;;;;3.35;2.80;;;;;;;30.84;36.93;101648.97;5035748;27;98231;-79
2023/06/25 09:59:16;;;;;;;3.00;2.70;;;;;;;30.83;36.89;101641.72;5036846;27;96731;-79
2023/06/25 10:01:42;;;;;;;3.13;2.60;;;;;;;30.84;36.95;101648.13;5035547;27;96809;-79
2023/06/25 10:04:09;;;;;;;3.17;2.72;;;;;;;30.84;37.08;101648.97;5055786;27;96905;-80
2023/06/25 10:06:37;;;;;;;3.15;2.85;;;;;;;30.84;36.72;101650.88;5055017;27;97025;-79
2023/06/25 10:09:04;;;;;;;3.13;2.83;;;;;;;30.84;37.00;101646.19;5055421;27;97873;-80
2023/06/25 10:11:31;;;;;;;3.03;2.22;;;;;;;30.85;36.70;101647.91;5051124;27;96962;-80
2023/06/25 10:13:59;;;;;;;3.33;2.90;;;;;;;30.85;36.99;101645.13;5033115;27;97310;-80
2023/06/25 10:16:31;;;;;;;2.78;2.50;;;;;;;30.86;36.87;101641.28;5041039;27;98049;-80
2023/06/25 10:19:05;;;;;;;3.15;2.85;;;;;;;30.85;36.89;101638.72;5050134;27;97408;-80
2023/06/25 10:21:32;;;;;;;2.70;2.50;;;;;;;30.86;36.54;101637.66;5049533;27;96973;-79
2023/06/25 10:24:01;;;;;;;4.20;2.90;;;;;;;30.86;36.82;101632.09;5052120;27;97052;-80
2023/06/25 10:26:33;;;;;;;3.03;2.50;;;;;;;30.85;36.83;101631.25;5036099;27;98196;-80
2023/06/25 10:29:01;;;;;;;3.47;2.70;;;;;;;30.86;36.92;101632.09;5032008;27;100027;-80
2023/06/25 10:31:37;;;;;;;4.43;2.60;;;;;;;30.87;36.89;101625.47;5038262;27;97539;-81
2023/06/25 10:34:06;;;;;;;3.30;2.80;;;;;;;30.86;36.59;101623.78;5049998;27;96851;-81
2023/06/25 10:36:33;;;;;;;3.67;2.60;;;;;;;30.86;36.69;101621.00;5047635;27;97384;-81
2023/06/25 10:39:00;;;;;;;3.08;2.78;;;;;;;30.86;36.86;101619.09;5051921;27;97513;-80
2023/06/25 10:41:31;;;;;;;2.90;2.60;;;;;;;30.88;36.67;101619.72;5034410;27;99051;-80
2023/06/25 10:43:58;;;;;;;2.92;2.63;;;;;;;30.87;36.88;101623.56;5055434;27;96781;-80
2023/06/25 10:46:32;;;;;;;3.05;2.78;;;;;;;30.89;36.86;101620.56;5059786;27;100492;-80
2023/06/25 10:49:02;;;;;;;3.20;2.60;;;;;;;30.87;36.58;101608.84;5052970;27;97468;-81
2023/06/25 10:51:29;;;;;;;2.78;2.45;;;;;;;30.86;36.67;101612.69;5050816;27;96779;-78
2023/06/25 10:53:56;;;;;;;3.65;2.70;;;;;;;30.88;36.80;101613.31;5047724;27;97786;-77
2023/06/25 10:56:23;;;;;;;3.55;2.72;;;;;;;30.87;36.83;101609.69;5054817;27;97929;-78
2023/06/25 10:58:57;;;;;;;2.90;2.70;;;;;;;30.89;36.87;101604.75;5045527;27;96642;-77
2023/06/25 11:01:24;;;;;;;2.97;2.67;;;;;;;30.87;36.96;101606.91;5046207;27;96731;-77
2023/06/25 11:03:51;;;;;;;3.30;2.50;;;;;;;30.87;36.96;101606.91;5047561;27;96944;-77
2023/06/25 11:06:18;;;;;;;2.63;2.33;;;;;;;30.89;36.75;101604.75;5048982;27;97151;-77
2023/06/25 11:08:45;;;;;;;3.10;2.53;;;;;;;30.89;36.77;101596.44;5044690;27;97415;-77
2023/06/25 11:11:12;;;;;;;3.35;2.47;;;;;;;30.89;36.54;101592.81;5048801;27;96984;-75
2023/06/25 11:13:38;;;;;;;3.80;2.60;;;;;;;30.89;36.90;101593.66;5042460;27;97004;-74
2023/06/25 11:16:05;;;;;;;3.00;2.42;;;;;;;30.89;36.99;101593.66;5044710;27;96979;-76
2023/06/25 11:18:32;;;;;;;3.83;2.58;;;;;;;30.89;36.90;101590.03;5050995;27;96875;-77
2023/06/25 11:21:03;;;;;;;3.15;2.47;;;;;;;30.90;36.98;101583.44;5049346;27;97129;-77
2023/06/25 11:23:30;;;;;;;3.55;2.78;;;;;;;30.91;36.91;101593.44;5052077;27;96653;-81
2023/06/25 11:26:00;;;;;;;2.90;2.63;;;;;;;30.92;36.85;101587.66;5050889;27;96776;-78